AirNav   MODERNIZE NOT PRIVATIZE ATC
 
 1039 users online  

NY04 East Arcade Airport
Arcade, New York, USA

GOING TO ARCADE?


FAA INFORMATION EFFECTIVE 20 JULY 2017

Location

FAA Identifier: NY04
Lat/Long: 42-35-08.2230N / 078-20-57.0570W
42-35.137050N / 078-20.950950W
42.5856175 / -78.3491825
(estimated)
Elevation: 1830 ft. / 558 m (estimated)
Variation: 10W (1985)
From city: 6 miles NE of ARCADE, NY
Time zone: UTC -4 (UTC -5 during Standard Time)
Zip code: 14009

Airport Operations

Airport use: Private use. Permission required prior to landing
Activation date: 11/1990
Control tower: no
ARTCC: CLEVELAND CENTER
FSS: BUFFALO FLIGHT SERVICE STATION
Attendance: IREG
Segmented circle: no

Nearby radio navigation aids

VOR radial/distance  VOR name  Freq  Var
BUFr156/24.4BUFFALO VOR/DME116.4008W
GEEr250/31.0GENESEO VOR/DME108.2009W
ELZr341/33.6WELLSVILLE VORTAC111.4009W

Airport Services

Runway Information

Runway 10/28

Dimensions: 2300 x 100 ft. / 701 x 30 m
Surface: turf
RUNWAY 10  RUNWAY 28
Traffic pattern: leftleft

Airport Ownership and Management from official FAA records

Ownership: Privately-owned
Owner: EAST ARCADE LLC
10192 BOSTON STATE ROAD
BOSTON, NY 14025
Phone 716-941-3699
Manager: WILLIAM PAPICH
10192 BOSTON STATE ROAD
BOSTON, NY 14025
Phone 716-949-6343

Airport Operational Statistics

Aircraft based on the field: 2
Single engine airplanes: 1
Multi engine airplanes: 1
    

Instrument Procedures

There are no published instrument procedures at NY04.

Some nearby airports with instrument procedures:

KOLE - Cattaraugus County-Olean Airport (21 nm S)
9G0 - Buffalo Airfield (23 nm NW)
9G3 - Akron Airport (27 nm N)
KBUF - Buffalo Niagara International Airport (27 nm NW)
KGVQ - Genesee County Airport (28 nm N)
 
Loc | Ops | Rwys | IFR | FBO | Links
Com | Nav | Svcs | Stats | Notes


 
Area around NY04 (East Arcade Airport)
 
Road maps at: MapQuest Bing Google
 
Aerial photo
No photo
 
Sectional chart

 
Airport distance calculator
Flying to East Arcade Airport? Find the distance to fly.

From to NY04

Sunrise and sunset
Times for 21-Jul-2017
 Local
(UTC-4)
 Zulu
(UTC)
Morning civil twilight05:2209:22
Sunrise05:5509:55
Sunset20:4400:44
Evening civil twilight21:1701:17

Current date and time
Zulu (UTC)  21-Jul-2017 23:18:57
Local (UTC-4)  21-Jul-2017 19:18:57
 
METAR
KOLE 
21nm S 
212255Z AUTO 32005G14KT 10SM CLR 23/18 A3001 RMK AO2
KBUF 
27nm NW 
212254Z 24011KT 10SM FEW035 SCT280 27/18 A2991 RMK AO2 SLP125 T02720183
KDSV 
28nm E 
212254Z AUTO VRB04KT 10SM CLR 28/17 A2992 RMK AO2 SLP135 T02830167
KELZ 
33nm SE 
212256Z AUTO 32005KT 10SM BKN031 26/19 A3001 RMK AO2 SLP146 T02560194
KIAG 
41nm NW 
212253Z 30005KT 10SM CLR 29/16 A2990 RMK AO2 SLP120 T02890161
KDKK 
42nm W 
212253Z AUTO 22008KT 10SM CLR 26/21 A2993 RMK AO2 SLP131 T02610211 $
TAF
KBUF 
27nm NW 
212107Z 2121/2218 26006KT P6SM SKC FM220300 VRB03KT P6SM BKN250 FM221200 VRB03KT P6SM OVC080 FM221600 VRB05KT P6SM VCSH OVC040
NOTAMs
Click for the latest NOTAMs
NOTAMs are issued by the DoD/FAA and will open in a separate window not controlled by AirNav.

 

 
 

Would you like to see your business listed on this page?

 If your business provides an interesting product or service to pilots, flight crews, aircraft, or users of the East Arcade Airport, you should consider listing it here.  To start the listing process, click on the button below
 
Add a business
 

Other Pages about East Arcade Airport

Update a link
 
Copyright © AirNav, LLC. All rights reserved. Privacy Policy  Contact